METAR Data
IDs: Format: Raw Decoded Include TAF

Data at: 0110 UTC 25 Mar 2019

KEOK 250055Z AUTO 02006G13KT 6SM BR OVC007 10/10 A2999 RMK AO2
KEOK 250035Z AUTO 03007KT 6SM BR OVC007 10/10 A2998 RMK AO2
KEOK 250015Z AUTO 04005KT 4SM BR OVC006 10/10 A2997 RMK AO2
KEOK 242355Z AUTO 05004KT 3SM BR BKN007 OVC070 10/10 A2998 RMK AO2
KEOK 242335Z AUTO 06007KT 4SM BR FEW007 BKN070 BKN080 10/10 A2997 RMK AO2
KEOK 242315Z AUTO 07007KT 4SM BR SCT008 BKN065 BKN095 10/10 A2996 RMK AO2
KEOK 242255Z AUTO 06005KT 3SM BR SCT007 BKN065 10/10 A2996 RMK AO2
KEOK 242235Z AUTO 06005KT 2SM -RA BKN007 OVC060 10/10 A2996 RMK AO2
KEOK 242215Z AUTO 06005KT 4SM BR SCT006 BKN009 BKN060 10/10 A2996 RMK AO2
KEOK 242155Z AUTO 08004KT 2 1/2SM -RA BKN007 11/10 A2996 RMK AO2 P0005
KEOK 242135Z AUTO VRB05KT 2 1/2SM -RA BKN007 BKN013 BKN060 11/10 A2997 RMK AO2
KEOK 242115Z AUTO 03004KT 4SM BR SCT006 BKN011 BKN060 11/10 A2996 RMK AO2
KEOK 242055Z AUTO 09010KT 2SM BR FEW026 SCT031 BKN070 11/11 A2995 RMK AO2 P0006
KEOK 242035Z AUTO 08007KT 1 3/4SM -RA BKN011 BKN016 OVC032 10/10 A2996 RMK AO2
KEOK 242015Z AUTO 00000KT 5SM -RA OVC011 11/10 A2997 RMK AO2
KEOK 241955Z AUTO 09008KT 4SM -RA BKN012 OVC034 11/10 A2996 RMK AO2
KEOK 241935Z AUTO 07006KT 10SM OVC013 11/10 A2996 RMK AO2
KEOK 241915Z AUTO 06005KT 10SM OVC014 12/10 A2997 RMK AO2
KEOK 241855Z AUTO 00000KT 10SM BKN013 OVC025 12/10 A2998 RMK AO2
KEOK 241835Z AUTO 09005KT 10SM FEW012 BKN026 OVC035 12/10 A2997 RMK AO2
KEOK 241815Z AUTO 07004KT 10SM FEW011 BKN028 OVC035 12/09 A2998 RMK AO2
KEOK 241755Z AUTO 00000KT SCT011 OVC027 12/09 A2999 RMK AO2
KEOK 241735Z AUTO 08003KT 9SM BKN012 BKN027 OVC034 11/09 A3000 RMK AO2
KEOK 241715Z AUTO VRB05KT 9SM SCT012 OVC034 11/09 A2999 RMK AO2
KEOK 241655Z AUTO 10005KT 9SM SCT011 SCT026 BKN035 10/09 A3000 RMK AO2
KEOK 241635Z AUTO 00000KT 8SM SCT009 OVC033 10/09 A3002 RMK AO2
KEOK 241615Z AUTO 12007KT 7SM FEW009 OVC033 10/09 A3002 RMK AO2
KEOK 241555Z AUTO 12007KT 7SM FEW008 OVC032 09/08 A3002 RMK AO2
KEOK 241535Z AUTO 13006KT 7SM FEW008 BKN023 OVC031 09/08 A3002 RMK AO2
KEOK 241515Z AUTO 13008KT 6SM BR OVC024 09/08 A3002 RMK AO2
KEOK 241455Z AUTO 12006KT 6SM BR OVC024 09/08 A3002 RMK AO2
KEOK 241435Z AUTO 13006KT 5SM BR OVC024 08/08 A3003 RMK AO2
KEOK 241415Z AUTO 13007KT 4SM BR OVC024 08/08 A3003 RMK AO2
KEOK 241355Z AUTO 13007KT 4SM BR OVC024 08/08 A3003 RMK AO2
KEOK 241335Z AUTO 12007KT 4SM BR OVC026 08/07 A3003 RMK AO2
KEOK 241315Z AUTO 12007KT 4SM BR OVC026 08/07 A3003 RMK AO2
KEOK 241255Z AUTO 12009KT 4SM BR OVC027 08/07 A3003 RMK AO2
KEOK 241235Z AUTO 13007KT 5SM BR OVC028 08/07 A3003 RMK AO2
KEOK 241215Z AUTO 13005KT 5SM BR OVC030 08/07 A3003 RMK AO2
KEOK 241155Z AUTO 12008KT 5SM BR OVC031 08/07 A3003 RMK AO2
KEOK 241135Z AUTO 11008KT 3SM BR OVC035 08/07 A3003 RMK AO2
KEOK 241115Z AUTO 13007KT 6SM BR BKN036 OVC044 08/07 A3004 RMK AO2
KEOK 241055Z AUTO 12008KT 7SM OVC042 08/07 A3004 RMK AO2
KEOK 241035Z AUTO 12007KT 8SM OVC043 08/07 A3004 RMK AO2
KEOK 241015Z AUTO 11008KT 9SM OVC045 08/07 A3004 RMK AO2
KEOK 240955Z AUTO 11007KT 10SM BKN048 OVC055 08/07 A3004 RMK AO2
KEOK 240935Z AUTO 11007KT 9SM BKN050 OVC060 08/07 A3004 RMK AO2
KEOK 240915Z AUTO 11005KT 7SM -RA OVC050 08/07 A3005 RMK AO2
KEOK 240855Z AUTO 12004KT 10SM BKN055 OVC060 07/07 A3005 RMK AO2 P0001
KEOK 240835Z AUTO 09006KT 10SM BKN060 OVC075 07/07 A3006 RMK AO2
KEOK 240815Z AUTO 11005KT 8SM FEW032 SCT055 OVC060 07/07 A3007 RMK AO2
KEOK 240755Z AUTO 10005KT 7SM -RA FEW033 OVC060 07/06 A3008 RMK AO2 P0001
KEOK 240735Z AUTO 14004KT 7SM FEW035 FEW047 OVC060 08/06 A3009 RMK AO2
KEOK 240715Z AUTO 14005KT 10SM FEW031 OVC065 08/06 A3010 RMK AO2
KEOK 240655Z AUTO 14006KT 9SM FEW034 FEW055 OVC070 08/05 A3010 RMK AO2
KEOK 240635Z AUTO 14007KT 9SM BKN065 OVC085 09/04 A3011 RMK AO2
KEOK 240615Z AUTO 14007KT 10SM FEW028 SCT060 OVC065 09/03 A3011 RMK AO2
KEOK 240555Z AUTO 13006KT 10SM BKN033 BKN055 OVC065 09/04 A3011 RMK AO2
KEOK 240535Z AUTO 14005KT 10SM FEW035 BKN055 OVC060 09/04 A3012 RMK AO2
KEOK 240515Z AUTO 13006KT 10SM FEW037 BKN065 OVC075 09/04 A3012 RMK AO2
KEOK 240455Z AUTO 13006KT 10SM FEW045 BKN065 OVC075 09/03 A3013 RMK AO2
KEOK 240435Z AUTO 13007KT 10SM FEW047 BKN060 OVC070 09/02 A3013 RMK AO2
KEOK 240415Z AUTO 12005KT 10SM FEW050 OVC070 09/02 A3013 RMK AO2
KEOK 240355Z AUTO 12007KT 10SM FEW050 OVC070 09/03 A3013 RMK AO2
KEOK 240335Z AUTO 12005KT 10SM OVC070 09/02 A3013 RMK AO2
KEOK 240315Z AUTO 12006KT 10SM OVC080 10/02 A3014 RMK AO2
KEOK 240255Z AUTO VRB05KT 10SM SCT070 BKN080 OVC095 09/01 A3013 RMK AO2
KEOK 240235Z AUTO 12005G11KT 10SM FEW039 SCT065 BKN075 10/01 A3013 RMK AO2
KEOK 240215Z AUTO 12007G12KT 10SM FEW039 SCT065 BKN075 10/01 A3012 RMK AO2
KEOK 240155Z AUTO 12010KT 10SM SCT075 OVC090 10/02 A3012 RMK AO2
KEOK 240135Z AUTO 12009KT 10SM BKN110 10/02 A3012 RMK AO2
KEOK 240115Z AUTO 12008KT 10SM FEW120 10/01 A3013 RMK AO2
KEOK 240055Z AUTO 13006KT 10SM SCT110 10/01 A3014 RMK AO2
KEOK 240035Z AUTO 13007KT 10SM BKN110 10/01 A3014 RMK AO2
KEOK 240015Z AUTO 14006KT 10SM BKN120 11/01 A3014 RMK AO2
KEOK 232355Z AUTO 13008G14KT 10SM SCT120 11/01 A3014 RMK AO2
KEOK 232335Z AUTO 13007KT 10SM CLR 12/01 A3014 RMK AO2
KEOK 232315Z AUTO 13009KT 10SM CLR 12/01 A3014 RMK AO2
KEOK 232255Z AUTO 14011G17KT 10SM CLR 12/01 A3015 RMK AO2
KEOK 232235Z AUTO 14011KT 10SM SCT095 13/00 A3015 RMK AO2
KEOK 232215Z AUTO 13011KT 10SM OVC100 13/00 A3016 RMK AO2
KEOK 232155Z AUTO 13009KT 10SM BKN100 13/00 A3016 RMK AO2
KEOK 232135Z AUTO 13011KT 10SM BKN110 13/M00 A3017 RMK AO2
KEOK 232115Z AUTO 13010KT 10SM BKN110 13/01 A3017 RMK AO2
KEOK 232055Z AUTO 13010KT 10SM BKN110 13/00 A3017 RMK AO2
KEOK 232035Z AUTO 13009KT 10SM CLR 13/00 A3018 RMK AO2
KEOK 232015Z AUTO 12011G17KT 10SM CLR 13/M00 A3019 RMK AO2
KEOK 231955Z AUTO 14011G16KT 10SM CLR 13/00 A3020 RMK AO2
KEOK 231935Z AUTO 15011KT 10SM CLR 13/00 A3021 RMK AO2
KEOK 231915Z AUTO 14012G18KT 10SM CLR 12/M00 A3021 RMK AO2
KEOK 231855Z AUTO 14012G18KT 10SM CLR 13/01 A3021 RMK AO2
KEOK 231835Z AUTO 13010G15KT 10SM CLR 12/00 A3022 RMK AO2
KEOK 231815Z AUTO 13011KT 10SM CLR 12/M00 A3022 RMK AO2
KEOK 231755Z AUTO 14010KT 10SM CLR 11/00 A3023 RMK AO2
KEOK 231735Z AUTO 12010G16KT 090V160 10SM CLR 12/M00 A3023 RMK AO2
KEOK 231715Z AUTO 18010KT 10SM CLR 11/00 A3024 RMK AO2
KEOK 231655Z AUTO 14010KT 10SM CLR 11/01 A3025 RMK AO2
KEOK 231635Z AUTO 17010G18KT 10SM CLR 10/00 A3026 RMK AO2
KEOK 231615Z AUTO 12009KT 090V150 10SM CLR 10/02 A3026 RMK AO2
KEOK 231555Z AUTO 14008KT 120V180 10SM CLR 09/01 A3027 RMK AO2
KEOK 231535Z AUTO 16008KT 10SM CLR 08/01 A3028 RMK AO2
KEOK 231515Z AUTO 13010KT 10SM CLR 07/01 A3027 RMK AO2
KEOK 231455Z AUTO 13009KT 10SM CLR 06/01 A3027 RMK AO2
KEOK 231435Z AUTO 13008KT 10SM CLR 05/00 A3028 RMK AO2
KEOK 231415Z AUTO 12007KT 10SM CLR 04/00 A3028 RMK AO2
KEOK 231355Z AUTO 12007KT 10SM CLR 03/00 A3028 RMK AO2
KEOK 231335Z AUTO 12007KT 10SM CLR 02/00 A3028 RMK AO2
KEOK 231315Z AUTO 12007KT 10SM CLR 02/M00 A3028 RMK AO2